createdAt,value
2018-10-21T00:00:55.097Z,8.40
2018-10-21T00:03:25.105Z,8.30
2018-10-21T00:05:55.022Z,8.30
2018-10-21T00:08:24.909Z,8.20
2018-10-21T00:10:54.953Z,8.20
2018-10-21T00:13:24.908Z,8.30
2018-10-21T00:15:54.777Z,8.30
2018-10-21T00:18:24.732Z,8.30
2018-10-21T00:20:54.647Z,8.30
2018-10-21T00:23:24.546Z,8.30
2018-10-21T00:25:54.466Z,8.40
2018-10-21T00:28:24.360Z,8.40
2018-10-21T00:30:54.375Z,8.40
2018-10-21T00:33:24.256Z,8.40
2018-10-21T00:35:54.149Z,8.40
2018-10-21T00:38:24.038Z,8.40
2018-10-21T00:40:53.967Z,8.40
2018-10-21T00:43:23.851Z,8.40
2018-10-21T00:45:53.735Z,8.40
2018-10-21T00:48:24.291Z,8.40
2018-10-21T00:50:54.318Z,8.30
2018-10-21T00:53:24.169Z,8.30
2018-10-21T00:55:54.721Z,8.30
2018-10-21T00:58:24.605Z,8.20
2018-10-21T01:00:54.544Z,8.20
2018-10-21T01:03:24.510Z,8.10
2018-10-21T01:05:54.413Z,8.10
2018-10-21T01:08:24.400Z,8.10
2018-10-21T01:10:54.354Z,8.00
2018-10-21T01:13:24.281Z,8.00
2018-10-21T01:15:54.166Z,8.00
2018-10-21T01:18:24.116Z,8.00
2018-10-21T01:20:54.069Z,7.90
2018-10-21T01:23:24.021Z,8.00
2018-10-21T01:25:53.917Z,7.90
2018-10-21T01:28:23.850Z,7.90
2018-10-21T01:30:53.709Z,7.80
2018-10-21T01:33:23.602Z,7.70
2018-10-21T01:35:53.544Z,7.60
2018-10-21T01:38:23.806Z,7.50
2018-10-21T01:40:55.001Z,7.40
2018-10-21T01:43:26.080Z,7.40
2018-10-21T01:45:56.386Z,7.30
2018-10-21T01:48:27.476Z,7.30
2018-10-21T01:50:57.539Z,7.30
2018-10-21T01:53:27.486Z,7.20
2018-10-21T01:55:57.457Z,7.20
2018-10-21T01:58:27.448Z,7.10
2018-10-21T02:00:57.616Z,7.10
2018-10-21T02:03:27.511Z,7.00
2018-10-21T02:05:57.461Z,7.00
2018-10-21T02:08:28.384Z,7.00
2018-10-21T02:10:58.357Z,6.90
2018-10-21T02:13:28.266Z,6.90
2018-10-21T02:15:58.196Z,6.80
2018-10-21T02:18:28.138Z,6.80
2018-10-21T02:20:58.393Z,6.80
2018-10-21T02:23:28.628Z,6.70
2018-10-21T02:25:58.537Z,6.70
2018-10-21T02:28:28.426Z,6.70
2018-10-21T02:30:58.314Z,6.60
2018-10-21T02:33:28.362Z,6.50
2018-10-21T02:35:58.155Z,6.50
2018-10-21T02:38:28.113Z,6.40
2018-10-21T02:41:41.474Z,6.40
2018-10-21T02:44:18.821Z,6.50
2018-10-21T02:46:49.485Z,6.60
2018-10-21T02:49:20.025Z,6.70
2018-10-21T02:51:55.297Z,6.70
2018-10-21T02:54:26.454Z,6.60
2018-10-21T02:56:56.396Z,6.50
2018-10-21T02:59:26.569Z,6.50
2018-10-21T03:01:56.543Z,6.40
2018-10-21T03:04:26.469Z,6.40
2018-10-21T03:06:56.465Z,6.50
2018-10-21T03:09:27.385Z,6.50
2018-10-21T03:11:57.278Z,6.50
2018-10-21T03:14:27.246Z,6.50
2018-10-21T03:16:57.148Z,6.40
2018-10-21T03:19:27.077Z,6.30
2018-10-21T03:21:57.153Z,6.20
2018-10-21T03:24:27.113Z,6.20
2018-10-21T03:26:57.037Z,6.10
2018-10-21T03:29:27.001Z,6.00
2018-10-21T03:31:56.902Z,6.00
2018-10-21T03:34:26.821Z,6.00
2018-10-21T03:36:56.720Z,5.90
2018-10-21T03:39:26.612Z,5.90
2018-10-21T03:41:56.594Z,5.90
2018-10-21T03:47:24.761Z,5.80
2018-10-21T03:49:54.685Z,5.80
2018-10-21T03:52:24.602Z,5.80
2018-10-21T03:54:54.487Z,5.80
2018-10-21T03:57:24.441Z,5.80
2018-10-21T03:59:54.361Z,5.90
2018-10-21T04:02:24.309Z,5.80
2018-10-21T04:04:54.201Z,5.60
2018-10-21T04:07:24.104Z,5.60
2018-10-21T04:09:54.168Z,5.60
2018-10-21T04:12:24.066Z,5.50
2018-10-21T04:14:54.005Z,5.50
2018-10-21T04:17:24.312Z,5.50
2018-10-21T04:19:54.202Z,5.50
2018-10-21T04:22:24.425Z,5.50
2018-10-21T04:24:54.330Z,5.50
2018-10-21T04:27:24.867Z,5.50
2018-10-21T04:29:54.800Z,5.50
2018-10-21T04:32:24.745Z,5.50
2018-10-21T04:34:54.645Z,5.50
2018-10-21T04:38:45.580Z,5.40
2018-10-21T04:41:15.501Z,5.30
2018-10-21T04:43:45.768Z,5.20
2018-10-21T04:46:15.703Z,5.20
2018-10-21T04:48:45.582Z,5.20
2018-10-21T04:51:15.509Z,5.10
2018-10-21T04:53:45.441Z,5.00
2018-10-21T04:56:15.422Z,5.00
2018-10-21T04:58:45.320Z,5.00
2018-10-21T05:01:15.226Z,4.90
2018-10-21T05:03:45.142Z,4.90
2018-10-21T05:06:15.078Z,4.90
2018-10-21T05:08:44.974Z,4.90
2018-10-21T05:11:14.853Z,4.90
2018-10-21T05:13:44.804Z,4.90
2018-10-21T05:16:14.747Z,4.80
2018-10-21T05:18:44.861Z,4.80
2018-10-21T05:21:14.928Z,4.80
2018-10-21T05:23:44.856Z,4.80
2018-10-21T05:26:14.757Z,4.80
2018-10-21T05:28:44.695Z,4.80
2018-10-21T05:31:14.625Z,4.60
2018-10-21T05:33:44.565Z,4.60
2018-10-21T05:36:14.454Z,4.60
2018-10-21T05:38:44.339Z,4.60
2018-10-21T05:41:14.270Z,4.60
2018-10-21T05:43:44.334Z,4.60
2018-10-21T05:46:31.429Z,4.70
2018-10-21T05:49:01.289Z,4.70
2018-10-21T05:51:31.205Z,4.70
2018-10-21T05:54:01.092Z,4.70
2018-10-21T05:56:30.984Z,4.60
2018-10-21T05:59:01.177Z,4.60
2018-10-21T06:01:31.136Z,4.60
2018-10-21T06:04:01.023Z,4.60
2018-10-21T06:06:30.949Z,4.50
2018-10-21T06:09:00.826Z,4.60
2018-10-21T06:11:30.725Z,4.60
2018-10-21T06:14:01.246Z,4.70
2018-10-21T06:16:35.553Z,4.70
2018-10-21T06:19:07.125Z,4.80
2018-10-21T06:21:37.081Z,4.80
2018-10-21T06:24:07.061Z,4.80
2018-10-21T06:26:37.322Z,4.90
2018-10-21T06:29:07.449Z,5.00
2018-10-21T06:31:37.525Z,5.00
2018-10-21T06:34:07.445Z,5.10
2018-10-21T06:36:37.427Z,5.10
2018-10-21T06:39:07.613Z,5.10
2018-10-21T06:41:37.565Z,5.10
2018-10-21T06:44:07.517Z,5.10
2018-10-21T06:46:37.425Z,5.10
2018-10-21T06:49:07.311Z,5.00
2018-10-21T06:51:37.438Z,5.10
2018-10-21T06:54:07.345Z,5.10
2018-10-21T06:56:37.661Z,5.10
2018-10-21T06:59:07.513Z,5.20
2018-10-21T07:01:37.412Z,5.20
2018-10-21T07:04:07.805Z,5.40
2018-10-21T07:06:37.724Z,5.50
2018-10-21T07:09:07.702Z,5.50
2018-10-21T07:11:37.595Z,5.70
2018-10-21T07:14:07.481Z,5.80
2018-10-21T07:16:37.505Z,5.90
2018-10-21T07:19:07.573Z,6.00
2018-10-21T07:21:37.594Z,6.00
2018-10-21T07:24:07.481Z,6.10
2018-10-21T07:26:37.401Z,6.30
2018-10-21T07:29:07.305Z,6.30
2018-10-21T07:31:37.192Z,6.50
2018-10-21T07:34:07.143Z,6.60
2018-10-21T07:36:37.285Z,6.80
2018-10-21T07:39:09.693Z,6.90
2018-10-21T07:41:39.733Z,7.10
2018-10-21T07:44:09.644Z,7.20
2018-10-21T07:46:39.757Z,7.30
2018-10-21T07:49:09.718Z,7.40
2018-10-21T07:51:39.697Z,7.60
2018-10-21T07:54:09.614Z,7.70
2018-10-21T07:56:39.529Z,7.80
2018-10-21T07:59:09.458Z,8.00
2018-10-21T08:01:39.345Z,8.10
2018-10-21T08:04:09.303Z,8.20
2018-10-21T08:07:57.446Z,8.30
2018-10-21T08:10:27.778Z,8.40
2018-10-21T08:12:57.700Z,8.60
2018-10-21T08:15:28.085Z,8.70
2018-10-21T08:17:57.982Z,8.80
2018-10-21T08:20:27.972Z,8.90
2018-10-21T08:22:57.936Z,9.00
2018-10-21T08:25:28.181Z,9.10
2018-10-21T08:27:58.121Z,9.20
2018-10-21T08:30:28.005Z,9.30
2018-10-21T08:32:57.978Z,9.50
2018-10-21T08:35:27.898Z,9.60
2018-10-21T08:37:57.778Z,9.80
2018-10-21T08:40:27.932Z,10.00
2018-10-21T08:42:57.817Z,10.00
2018-10-21T08:45:28.041Z,10.20
2018-10-21T08:47:57.993Z,10.30
2018-10-21T08:50:27.916Z,10.50
2018-10-21T08:52:57.849Z,10.60
2018-10-21T08:55:27.796Z,10.80
2018-10-21T08:57:57.798Z,11.00
2018-10-21T09:00:27.696Z,11.10
2018-10-21T09:02:57.601Z,11.20
2018-10-21T09:05:27.565Z,11.40
2018-10-21T09:07:57.478Z,11.60
2018-10-21T09:10:28.425Z,11.70
2018-10-21T09:12:58.273Z,11.80
2018-10-21T09:15:28.209Z,11.90
2018-10-21T09:17:58.150Z,11.90
2018-10-21T09:20:28.050Z,12.10
2018-10-21T09:22:58.025Z,12.10
2018-10-21T09:25:28.039Z,12.20
2018-10-21T09:27:58.059Z,12.30
2018-10-21T09:30:28.033Z,12.50
2018-10-21T09:32:57.925Z,12.60
2018-10-21T09:35:27.833Z,12.60
2018-10-21T09:37:57.776Z,12.60
2018-10-21T09:40:30.673Z,12.70
2018-10-21T09:43:00.610Z,12.80
2018-10-21T09:45:30.509Z,12.90
2018-10-21T09:48:00.465Z,13.10
2018-10-21T09:50:30.398Z,13.10
2018-10-21T09:53:00.281Z,13.10
2018-10-21T09:55:30.209Z,13.30
2018-10-21T09:58:00.157Z,13.30
2018-10-21T10:00:35.477Z,13.50
2018-10-21T10:03:06.687Z,13.50
2018-10-21T10:05:36.626Z,13.50
2018-10-21T10:08:06.638Z,13.60
2018-10-21T10:10:36.522Z,13.40
2018-10-21T10:13:06.692Z,13.40
2018-10-21T10:15:36.660Z,13.50
2018-10-21T10:18:06.577Z,13.60
2018-10-21T10:20:36.463Z,13.70
2018-10-21T10:23:06.646Z,13.60
2018-10-21T10:25:36.537Z,13.80
2018-10-21T10:28:07.350Z,13.90
2018-10-21T10:30:37.376Z,13.90
2018-10-21T10:33:07.266Z,14.00
2018-10-21T10:35:37.187Z,14.20
2018-10-21T10:38:07.108Z,14.20
2018-10-21T10:40:37.025Z,14.40
2018-10-21T10:43:07.431Z,14.40
2018-10-21T10:45:37.393Z,14.50
2018-10-21T10:48:07.761Z,14.40
2018-10-21T10:50:37.677Z,14.40
2018-10-21T10:53:07.748Z,14.50
2018-10-21T10:55:42.997Z,14.40
2018-10-21T10:58:12.954Z,14.50
2018-10-21T11:00:42.769Z,14.60
2018-10-21T11:03:13.162Z,14.60
2018-10-21T11:05:43.231Z,14.60
2018-10-21T11:08:13.192Z,14.60
2018-10-21T11:10:43.084Z,14.60
2018-10-21T11:13:13.036Z,14.60
2018-10-21T11:15:42.920Z,14.70
2018-10-21T11:18:12.813Z,14.70
2018-10-21T11:20:42.731Z,14.70
2018-10-21T11:23:12.601Z,14.80
2018-10-21T11:25:42.489Z,14.80
2018-10-21T11:28:12.552Z,14.80
2018-10-21T11:30:42.324Z,14.80
2018-10-21T11:33:12.269Z,14.70
2018-10-21T11:35:42.184Z,14.80
2018-10-21T11:38:12.144Z,14.90
2018-10-21T11:40:42.089Z,14.90
2018-10-21T11:43:12.582Z,14.80
2018-10-21T11:45:42.572Z,14.70
2018-10-21T11:48:12.631Z,14.80
2018-10-21T11:50:42.741Z,14.90
2018-10-21T11:53:12.640Z,14.80
2018-10-21T11:55:43.203Z,14.90
2018-10-21T11:58:14.507Z,14.80
2018-10-21T12:00:45.752Z,14.80
2018-10-21T12:03:15.657Z,14.90
2018-10-21T12:05:45.693Z,14.80
2018-10-21T12:08:15.653Z,14.70
2018-10-21T12:10:45.646Z,14.80
2018-10-21T12:13:15.625Z,14.80
2018-10-21T12:15:45.487Z,14.80
2018-10-21T12:18:15.385Z,14.80
2018-10-21T12:20:45.333Z,14.90
2018-10-21T12:23:15.289Z,14.80
2018-10-21T12:25:45.262Z,14.90
2018-10-21T12:28:15.167Z,14.80
2018-10-21T12:30:44.996Z,14.80
2018-10-21T12:33:14.956Z,14.80
2018-10-21T12:35:45.034Z,14.80
2018-10-21T12:38:14.969Z,14.90
2018-10-21T12:40:44.912Z,14.90
2018-10-21T12:43:14.843Z,15.00
2018-10-21T12:45:44.734Z,14.80
2018-10-21T12:48:14.642Z,14.80
2018-10-21T12:50:44.545Z,14.80
2018-10-21T12:53:14.647Z,14.70
2018-10-21T12:55:47.405Z,14.80
2018-10-21T12:58:17.701Z,14.70
2018-10-21T13:00:47.688Z,14.70
2018-10-21T13:03:17.909Z,14.70
2018-10-21T13:05:47.800Z,14.60
2018-10-21T13:08:18.045Z,14.60
2018-10-21T13:10:48.110Z,14.60
2018-10-21T13:13:18.032Z,14.70
2018-10-21T13:15:48.001Z,14.60
2018-10-21T13:18:17.929Z,14.50
2018-10-21T13:20:47.893Z,14.50
2018-10-21T13:23:17.949Z,14.40
2018-10-21T13:25:48.334Z,14.50
2018-10-21T13:28:18.274Z,14.50
2018-10-21T13:30:48.160Z,14.50
2018-10-21T13:33:18.316Z,14.50
2018-10-21T13:35:48.253Z,14.50
2018-10-21T13:38:18.180Z,14.50
2018-10-21T13:40:48.161Z,14.30
2018-10-21T13:43:18.111Z,14.30
2018-10-21T13:45:48.001Z,14.30
2018-10-21T13:48:17.862Z,14.20
2018-10-21T13:50:47.779Z,14.20
2018-10-21T13:53:17.770Z,14.10
2018-10-21T13:55:47.648Z,14.00
2018-10-21T13:58:17.672Z,14.00
2018-10-21T14:00:47.495Z,14.00
2018-10-21T14:03:17.381Z,14.00
2018-10-21T14:05:47.413Z,13.90
2018-10-21T14:08:17.329Z,13.90
2018-10-21T14:10:47.220Z,13.90
2018-10-21T14:13:17.196Z,13.80
2018-10-21T14:15:47.068Z,13.70
2018-10-21T14:18:16.976Z,13.70
2018-10-21T14:20:47.098Z,13.70
2018-10-21T14:23:17.049Z,13.60
2018-10-21T14:25:47.016Z,13.50
2018-10-21T14:28:16.898Z,13.50
2018-10-21T14:30:46.948Z,13.50
2018-10-21T14:33:16.926Z,13.40
2018-10-21T14:35:47.001Z,13.40
2018-10-21T14:38:16.925Z,13.40
2018-10-21T14:40:46.895Z,13.30
2018-10-21T14:43:16.908Z,13.30
2018-10-21T14:45:47.043Z,13.30
2018-10-21T14:48:17.102Z,13.30
2018-10-21T14:50:46.936Z,13.20
2018-10-21T14:53:16.890Z,13.10
2018-10-21T14:55:46.756Z,13.10
2018-10-21T14:58:16.646Z,13.10
2018-10-21T15:00:46.730Z,13.00
2018-10-21T15:03:16.650Z,13.00
2018-10-21T15:05:46.477Z,12.90
2018-10-21T15:08:16.457Z,12.90
2018-10-21T15:10:46.345Z,12.80
2018-10-21T15:13:16.261Z,12.80
2018-10-21T15:15:46.698Z,12.80
2018-10-21T15:18:16.762Z,12.70
2018-10-21T15:20:46.614Z,12.60
2018-10-21T15:23:16.600Z,12.50
2018-10-21T15:25:46.466Z,12.50
2018-10-21T15:28:16.462Z,12.40
2018-10-21T15:30:46.413Z,12.30
2018-10-21T15:33:16.320Z,12.20
2018-10-21T15:35:46.234Z,12.20
2018-10-21T15:38:16.204Z,12.10
2018-10-21T15:40:46.194Z,12.10
2018-10-21T15:43:16.165Z,12.00
2018-10-21T15:45:46.298Z,11.90
2018-10-21T15:48:16.185Z,11.90
2018-10-21T15:50:46.145Z,11.80
2018-10-21T15:53:16.321Z,11.70
2018-10-21T15:55:46.292Z,11.70
2018-10-21T15:58:16.296Z,11.60
2018-10-21T16:00:46.450Z,11.50
2018-10-21T16:03:16.433Z,11.40
2018-10-21T16:05:46.406Z,11.40
2018-10-21T16:08:16.366Z,11.30
2018-10-21T16:10:46.218Z,11.20
2018-10-21T16:13:16.226Z,11.20
2018-10-21T16:15:46.319Z,11.10
2018-10-21T16:18:16.631Z,11.00
2018-10-21T16:20:46.587Z,10.90
2018-10-21T16:23:16.533Z,10.80
2018-10-21T16:25:46.699Z,10.70
2018-10-21T16:28:16.793Z,10.70
2018-10-21T16:30:46.891Z,10.60
2018-10-21T16:33:16.825Z,10.60
2018-10-21T16:35:46.943Z,10.50
2018-10-21T16:38:16.909Z,10.40
2018-10-21T16:40:46.841Z,10.40
2018-10-21T16:43:16.777Z,10.40
2018-10-21T16:45:46.674Z,10.30
2018-10-21T16:48:16.959Z,10.30
2018-10-21T16:50:46.951Z,10.20
2018-10-21T16:53:16.837Z,10.20
2018-10-21T16:55:46.929Z,10.10
2018-10-21T16:58:16.850Z,10.10
2018-10-21T17:00:46.861Z,10.00
2018-10-21T17:03:16.962Z,10.00
2018-10-21T17:05:46.976Z,9.90
2018-10-21T17:08:16.755Z,9.90
2018-10-21T17:10:46.998Z,9.80
2018-10-21T17:13:16.749Z,9.80
2018-10-21T17:15:46.885Z,9.70
2018-10-21T17:18:16.734Z,9.60
2018-10-21T17:20:46.763Z,9.60
2018-10-21T17:23:16.669Z,9.50
2018-10-21T17:25:46.602Z,9.50
2018-10-21T17:28:16.560Z,9.50
2018-10-21T17:30:46.365Z,9.40
2018-10-21T17:33:16.268Z,9.40
2018-10-21T17:35:46.157Z,9.40
2018-10-21T17:38:16.141Z,9.30
2018-10-21T17:40:46.092Z,9.30
2018-10-21T17:43:16.096Z,9.20
2018-10-21T17:45:45.917Z,9.10
2018-10-21T17:48:16.108Z,9.10
2018-10-21T17:50:46.067Z,9.10
2018-10-21T17:53:15.957Z,9.00
2018-10-21T17:55:45.889Z,9.00
2018-10-21T17:58:15.973Z,8.90
2018-10-21T18:00:46.081Z,8.90
2018-10-21T18:03:16.068Z,8.80
2018-10-21T18:05:45.962Z,8.80
2018-10-21T18:08:15.858Z,8.80
2018-10-21T18:10:45.825Z,8.80
2018-10-21T18:13:15.907Z,8.70
2018-10-21T18:15:45.699Z,8.60
2018-10-21T18:18:15.635Z,8.60
2018-10-21T18:20:45.748Z,8.50
2018-10-21T18:23:15.520Z,8.50
2018-10-21T18:25:45.696Z,8.50
2018-10-21T18:28:16.138Z,8.40
2018-10-21T18:30:46.229Z,8.30
2018-10-21T18:33:16.247Z,8.30
2018-10-21T18:35:46.198Z,8.30
2018-10-21T18:38:16.090Z,8.20
2018-10-21T18:40:46.180Z,8.20
2018-10-21T18:43:16.006Z,8.20
2018-10-21T18:45:45.830Z,8.20
2018-10-21T18:48:15.771Z,8.20
2018-10-21T18:50:45.780Z,8.20
2018-10-21T18:53:15.732Z,8.10
2018-10-21T18:55:45.636Z,8.10
2018-10-21T18:58:15.708Z,8.10
2018-10-21T19:00:45.488Z,8.10
2018-10-21T19:03:15.433Z,8.00
2018-10-21T19:05:45.346Z,8.00
2018-10-21T19:08:15.247Z,7.90
2018-10-21T19:10:45.197Z,7.90
2018-10-21T19:13:15.182Z,7.80
2018-10-21T19:15:45.073Z,7.80
2018-10-21T19:18:14.972Z,7.80
2018-10-21T19:20:45.229Z,7.70
2018-10-21T19:23:15.123Z,7.70
2018-10-21T19:25:45.010Z,7.60
2018-10-21T19:28:15.002Z,7.60
2018-10-21T19:30:44.862Z,7.60
2018-10-21T19:33:14.752Z,7.60
2018-10-21T19:35:44.632Z,7.60
2018-10-21T19:38:14.548Z,7.60
2018-10-21T19:40:44.465Z,7.60
2018-10-21T19:43:14.416Z,7.60
2018-10-21T19:45:44.566Z,7.60
2018-10-21T19:48:14.463Z,7.50
2018-10-21T19:50:44.333Z,7.50
2018-10-21T19:53:14.329Z,7.50
2018-10-21T19:55:44.205Z,7.50
2018-10-21T19:58:14.125Z,7.40
2018-10-21T20:00:43.972Z,7.40
2018-10-21T20:03:13.933Z,7.50
2018-10-21T20:05:43.866Z,7.50
2018-10-21T20:08:13.766Z,7.40
2018-10-21T20:10:43.799Z,7.40
2018-10-21T20:13:13.754Z,7.40
2018-10-21T20:15:50.420Z,7.30
2018-10-21T20:18:20.355Z,7.30
2018-10-21T20:20:50.368Z,7.30
2018-10-21T20:23:20.381Z,7.30
2018-10-21T20:25:50.378Z,7.30
2018-10-21T20:28:20.276Z,7.30
2018-10-21T20:30:50.573Z,7.30
2018-10-21T20:33:20.455Z,7.10
2018-10-21T20:35:50.279Z,7.20
2018-10-21T20:38:20.395Z,7.10
2018-10-21T20:40:50.216Z,7.10
2018-10-21T20:43:20.133Z,7.00
2018-10-21T20:45:50.057Z,6.80
2018-10-21T20:48:20.012Z,6.80
2018-10-21T20:50:49.900Z,6.80
2018-10-21T20:53:19.795Z,6.70
2018-10-21T20:55:49.703Z,6.60
2018-10-21T20:58:19.770Z,6.60
2018-10-21T21:00:49.741Z,6.50
2018-10-21T21:03:19.628Z,6.50
2018-10-21T21:05:49.504Z,6.50
2018-10-21T21:08:19.686Z,6.40
2018-10-21T21:10:49.596Z,6.40
2018-10-21T21:13:19.550Z,6.40
2018-10-21T21:16:53.036Z,6.40
2018-10-21T21:19:23.118Z,6.40
2018-10-21T21:21:53.149Z,6.20
2018-10-21T21:24:23.725Z,6.20
2018-10-21T21:26:53.626Z,6.30
2018-10-21T21:29:23.505Z,6.30
2018-10-21T21:31:53.773Z,6.30
2018-10-21T21:34:23.688Z,6.30
2018-10-21T21:36:53.624Z,6.20
2018-10-21T21:39:23.540Z,6.20
2018-10-21T21:41:53.456Z,6.20
2018-10-21T21:44:24.328Z,6.20
2018-10-21T21:46:54.239Z,6.20
2018-10-21T21:49:24.316Z,6.20
2018-10-21T21:51:54.369Z,6.10
2018-10-21T21:54:24.217Z,6.10
2018-10-21T21:56:54.109Z,6.10
2018-10-21T21:59:24.045Z,6.10
2018-10-21T22:01:54.229Z,6.10
2018-10-21T22:04:24.318Z,6.10
2018-10-21T22:06:54.197Z,6.10
2018-10-21T22:09:24.401Z,6.00
2018-10-21T22:11:54.323Z,6.00
2018-10-21T22:14:24.201Z,6.10
2018-10-21T22:16:54.077Z,6.10
2018-10-21T22:19:24.318Z,6.10
2018-10-21T22:21:54.300Z,6.10
2018-10-21T22:24:24.181Z,6.00
2018-10-21T22:26:54.093Z,5.90
2018-10-21T22:29:24.057Z,5.90
2018-10-21T22:31:54.006Z,5.90
2018-10-21T22:34:23.889Z,5.90
2018-10-21T22:36:54.085Z,5.90
2018-10-21T22:39:24.648Z,5.90
2018-10-21T22:41:54.775Z,5.80
2018-10-21T22:44:24.668Z,5.80
2018-10-21T22:46:54.689Z,5.80
2018-10-21T22:49:24.625Z,5.90
2018-10-21T22:51:54.559Z,5.90
2018-10-21T22:54:24.445Z,5.90
2018-10-21T22:56:54.321Z,5.90
2018-10-21T22:59:24.266Z,5.90
2018-10-21T23:01:54.229Z,5.90
2018-10-21T23:04:24.177Z,5.80
2018-10-21T23:06:54.088Z,5.80
2018-10-21T23:09:23.999Z,5.80
2018-10-21T23:11:54.009Z,5.80
2018-10-21T23:14:23.829Z,5.80
2018-10-21T23:16:53.870Z,5.80
2018-10-21T23:19:50.041Z,5.80
2018-10-21T23:22:20.055Z,5.80
2018-10-21T23:24:49.932Z,5.90
2018-10-21T23:27:20.048Z,5.90
2018-10-21T23:29:49.921Z,6.00
2018-10-21T23:32:19.813Z,6.00
2018-10-21T23:34:49.741Z,6.10
2018-10-21T23:37:19.609Z,6.10
2018-10-21T23:39:49.651Z,6.20
2018-10-21T23:42:19.635Z,6.20
2018-10-21T23:44:49.542Z,6.30
2018-10-21T23:47:19.461Z,6.30
2018-10-21T23:49:49.438Z,6.30
2018-10-21T23:52:19.382Z,6.40
2018-10-21T23:54:49.269Z,6.40
2018-10-21T23:57:19.202Z,6.50
2018-10-21T23:59:49.141Z,6.60
